Time;durP1;ratioP1;P1;durP2;ratioP2;P2;SDS_P1;SDS_P2;PMS_P1;PMS_P2;Temp;Humidity;BMP_temperature;BMP_pressure;BME280_temperature;BME280_humidity;BME280_pressure;Samples;Min_cycle;Max_cycle;Signal;HPM_P1;HPM_P2
2022/03/25 00:00:36;;;;;;;21.85;10.75;;;;;;;4.64;38.59;98196.27;1789451;80;21032;-80
2022/03/25 00:03:05;;;;;;;24.12;11.97;;;;;;;4.64;37.84;98200.67;1786817;80;21016;-81
2022/03/25 00:05:32;;;;;;;25.08;12.23;;;;;;;4.64;37.46;98202.83;1787954;80;21532;-80
2022/03/25 00:07:59;;;;;;;22.15;10.93;;;;;;;4.52;37.44;98203.73;1786583;80;21127;-79
2022/03/25 00:10:26;;;;;;;22.73;11.48;;;;;;;4.42;37.88;98202.89;1791849;80;20956;-81
2022/03/25 00:12:54;;;;;;;25.40;12.30;;;;;;;4.35;37.57;98209.00;1793898;79;21032;-80
2022/03/25 00:15:22;;;;;;;26.05;12.35;;;;;;;4.31;39.21;98204.63;1791931;80;20941;-80
2022/03/25 00:17:49;;;;;;;23.42;12.25;;;;;;;4.25;38.39;98206.84;1801273;79;21369;-80
2022/03/25 00:20:15;;;;;;;26.10;12.75;;;;;;;4.18;38.38;98210.33;1801178;80;21436;-80
2022/03/25 00:22:42;;;;;;;21.52;11.85;;;;;;;4.01;39.05;98215.57;1801247;79;21072;-79
2022/03/25 00:25:10;;;;;;;24.07;12.28;;;;;;;3.90;38.55;98215.13;1800995;80;20969;-80
2022/03/25 00:27:36;;;;;;;23.55;12.20;;;;;;;3.76;38.89;98209.88;1801123;79;21031;-79
2022/03/25 00:30:05;;;;;;;23.67;11.65;;;;;;;3.64;38.89;98215.98;1801243;80;21351;-81
2022/03/25 00:32:32;;;;;;;27.73;13.65;;;;;;;3.54;39.32;98214.21;1800974;79;21059;-79
2022/03/25 00:35:00;;;;;;;22.22;12.13;;;;;;;3.44;39.62;98218.54;1808587;79;21043;-79
2022/03/25 00:37:26;;;;;;;22.25;11.28;;;;;;;3.36;40.00;98218.98;1819699;79;21004;-79
2022/03/25 00:39:53;;;;;;;22.82;11.63;;;;;;;3.25;39.53;98220.23;1820068;79;20977;-80
2022/03/25 00:42:20;;;;;;;21.65;11.45;;;;;;;3.20;40.92;98214.97;1789795;79;20949;-80
2022/03/25 00:44:47;;;;;;;20.50;11.33;;;;;;;3.18;40.62;98221.95;1806615;79;21516;-79
2022/03/25 00:47:15;;;;;;;23.02;11.88;;;;;;;3.09;41.26;98217.98;1817625;79;21048;-79
2022/03/25 00:49:42;;;;;;;29.77;13.38;;;;;;;3.04;43.61;98221.45;1769906;81;22103;-79
2022/03/25 00:52:09;;;;;;;22.40;11.05;;;;;;;3.10;42.12;98220.62;1769528;80;21032;-79
2022/03/25 00:54:36;;;;;;;21.62;11.65;;;;;;;3.04;43.27;98218.84;1800440;79;21388;-79
2022/03/25 00:57:03;;;;;;;20.50;12.05;;;;;;;3.09;41.51;98217.56;1786328;79;21152;-79
2022/03/25 00:59:30;;;;;;;27.48;11.60;;;;;;;3.10;41.33;98221.04;1769552;81;21025;-79
2022/03/25 01:02:00;;;;;;;24.23;11.68;;;;;;;3.10;41.82;98221.04;1769704;81;21102;-79
2022/03/25 01:04:28;;;;;;;19.57;10.38;;;;;;;3.10;41.77;98219.31;1777297;79;20948;-79
2022/03/25 01:06:55;;;;;;;26.37;13.05;;;;;;;3.16;42.33;98215.39;1766396;80;21062;-79
2022/03/25 01:09:22;;;;;;;23.10;11.63;;;;;;;3.16;42.12;98220.64;1766427;81;21001;-79
2022/03/25 01:11:49;;;;;;;19.82;10.45;;;;;;;3.13;42.02;98224.57;1774636;80;21005;-79
2022/03/25 01:14:16;;;;;;;20.43;10.23;;;;;;;3.15;42.02;98220.20;1801661;79;21424;-79
2022/03/25 01:16:43;;;;;;;24.98;11.53;;;;;;;3.24;41.87;98218.50;1796779;80;20997;-79
2022/03/25 01:19:11;;;;;;;22.45;11.63;;;;;;;3.30;41.83;98224.64;1796685;79;21011;-80
2022/03/25 01:21:39;;;;;;;26.25;11.25;;;;;;;3.35;43.76;98222.44;1796732;80;20976;-79
2022/03/25 01:24:06;;;;;;;21.33;11.03;;;;;;;3.40;42.87;98224.21;1798860;79;21043;-79
2022/03/25 01:26:33;;;;;;;24.63;11.22;;;;;;;3.45;43.75;98222.05;1804319;79;21047;-79
2022/03/25 01:29:00;;;;;;;20.17;10.10;;;;;;;3.49;42.56;98216.80;1804367;79;20952;-79
2022/03/25 01:31:27;;;;;;;25.60;11.90;;;;;;;3.51;42.85;98214.20;1772471;81;21461;-78
2022/03/25 01:33:54;;;;;;;27.70;12.00;;;;;;;3.54;43.11;98222.93;1798872;80;20964;-77
2022/03/25 01:36:21;;;;;;;21.75;10.25;;;;;;;3.52;42.69;98219.44;1801403;79;21397;-77
2022/03/25 01:38:48;;;;;;;21.57;11.00;;;;;;;3.51;42.00;98219.44;1817774;78;21026;-77
2022/03/25 01:41:18;;;;;;;19.73;10.55;;;;;;;3.53;42.68;98221.19;1799317;80;21504;-77
2022/03/25 01:43:52;;;;;;;21.05;11.55;;;;;;;3.52;42.41;98225.11;1799136;80;21031;-77
2022/03/25 01:46:19;;;;;;;21.12;11.03;;;;;;;3.47;42.32;98222.91;1799260;80;21063;-77
2022/03/25 01:48:46;;;;;;;22.65;11.35;;;;;;;3.43;43.85;98213.75;1795224;80;21488;-77
2022/03/25 01:51:16;;;;;;;19.27;11.20;;;;;;;3.41;43.87;98214.62;1801137;79;21042;-78
2022/03/25 01:53:43;;;;;;;22.95;11.22;;;;;;;3.38;43.66;98213.29;1796066;80;21440;-78
2022/03/25 01:56:10;;;;;;;19.65;10.78;;;;;;;3.36;44.42;98218.98;1801698;80;20999;-77
2022/03/25 01:58:39;;;;;;;20.97;10.03;;;;;;;3.34;43.76;98220.70;1797317;80;21416;-78
2022/03/25 02:01:06;;;;;;;16.67;9.93;;;;;;;3.32;44.39;98217.21;1802670;80;21091;-78
2022/03/25 02:03:33;;;;;;;20.23;10.20;;;;;;;3.34;44.03;98216.34;1795230;80;21047;-78
2022/03/25 02:06:00;;;;;;;19.70;9.38;;;;;;;3.34;43.50;98226.82;1832546;78;21019;-78
2022/03/25 02:08:27;;;;;;;18.07;10.35;;;;;;;3.33;44.12;98229.02;1835702;78;21034;-78
2022/03/25 02:10:54;;;;;;;22.02;9.65;;;;;;;3.32;44.21;98223.30;1832382;78;20995;-78
2022/03/25 02:13:22;;;;;;;15.88;9.25;;;;;;;3.32;44.13;98225.06;1817662;78;20963;-78
2022/03/25 02:15:52;;;;;;;20.05;10.28;;;;;;;3.29;44.94;98235.10;1810169;79;21027;-78
2022/03/25 02:18:19;;;;;;;20.70;9.68;;;;;;;3.27;44.04;98235.09;1779555;78;21404;-78
2022/03/25 02:20:49;;;;;;;16.27;8.93;;;;;;;3.19;43.58;98231.56;1814270;79;21034;-79
2022/03/25 02:23:17;;;;;;;22.50;10.40;;;;;;;3.03;44.33;98238.05;1814330;79;21353;-79
2022/03/25 02:25:47;;;;;;;20.43;9.68;;;;;;;3.00;43.48;98231.92;1802352;79;21048;-79
2022/03/25 02:28:14;;;;;;;19.25;10.03;;;;;;;2.92;43.71;98231.00;1798529;79;21020;-79
2022/03/25 02:30:43;;;;;;;21.27;10.30;;;;;;;2.80;46.18;98227.46;1798475;80;20977;-79
2022/03/25 02:33:11;;;;;;;17.62;9.95;;;;;;;2.77;44.56;98232.25;1798173;80;21148;-79
2022/03/25 02:35:48;;;;;;;23.47;10.28;;;;;;;2.74;44.59;98236.59;1798423;80;21005;-79
2022/03/25 02:38:20;;;;;;;20.30;10.10;;;;;;;2.66;45.52;98240.90;1782184;80;21046;-79
2022/03/25 02:40:48;;;;;;;21.00;9.98;;;;;;;2.64;45.97;98244.39;1782252;80;21010;-80
2022/03/25 02:43:15;;;;;;;17.12;8.58;;;;;;;2.60;45.26;98246.54;1782289;80;21050;-80
2022/03/25 02:45:43;;;;;;;17.92;8.68;;;;;;;2.53;47.57;98247.34;1793674;79;21013;-80
2022/03/25 02:48:12;;;;;;;17.25;9.38;;;;;;;2.49;46.86;98245.60;1798361;79;20982;-80
2022/03/25 02:50:39;;;;;;;20.00;9.10;;;;;;;2.44;48.44;98239.44;1798383;80;20969;-79
2022/03/25 02:53:07;;;;;;;23.45;8.70;;;;;;;2.41;46.77;98248.13;1798138;80;20997;-80
2022/03/25 02:55:33;;;;;;;14.73;8.85;;;;;;;2.37;48.18;98260.32;1808076;79;20991;-80
2022/03/25 02:58:00;;;;;;;16.27;8.43;;;;;;;2.33;47.27;98259.84;1814333;79;21127;-80
2022/03/25 03:00:27;;;;;;;17.90;10.10;;;;;;;2.32;46.84;98263.34;1814013;79;21007;-80
2022/03/25 03:02:55;;;;;;;18.45;8.30;;;;;;;2.32;47.82;98254.18;1814183;79;20971;-80
2022/03/25 03:05:22;;;;;;;20.12;9.40;;;;;;;2.33;48.03;98261.16;1814189;78;20955;-80
2022/03/25 03:07:49;;;;;;;20.05;9.10;;;;;;;2.36;47.96;98264.23;1814084;79;21054;-80
2022/03/25 03:10:17;;;;;;;17.27;9.48;;;;;;;2.38;46.63;98265.98;1814456;79;21007;-80
2022/03/25 03:12:44;;;;;;;16.57;8.63;;;;;;;2.38;47.07;98270.37;1814052;79;20959;-80
2022/03/25 03:15:15;;;;;;;23.90;9.08;;;;;;;2.38;47.17;98271.67;1814185;79;21015;-79
2022/03/25 03:17:42;;;;;;;19.87;9.20;;;;;;;2.38;49.10;98265.13;1814086;79;21400;-79
2022/03/25 03:20:10;;;;;;;16.05;8.65;;;;;;;2.34;47.08;98260.32;1805188;79;21030;-80
2022/03/25 03:22:36;;;;;;;16.80;8.95;;;;;;;2.31;46.74;98268.55;1803797;79;21034;-80
2022/03/25 03:25:05;;;;;;;17.80;8.45;;;;;;;2.26;48.37;98263.30;1803917;79;21384;-80
2022/03/25 03:27:32;;;;;;;16.42;8.38;;;;;;;2.22;47.72;98263.70;1803461;79;21412;-79
2022/03/25 03:29:59;;;;;;;18.20;8.70;;;;;;;2.18;49.43;98262.34;1803702;79;20970;-80
2022/03/25 03:32:26;;;;;;;15.32;8.45;;;;;;;2.13;48.99;98261.43;1810900;79;21030;-80
2022/03/25 03:34:55;;;;;;;12.70;7.50;;;;;;;2.09;48.22;98269.69;1814282;79;21050;-79
2022/03/25 03:37:22;;;;;;;14.55;8.15;;;;;;;2.04;49.84;98268.31;1805814;79;21059;-79
2022/03/25 03:39:50;;;;;;;15.03;8.45;;;;;;;2.03;49.12;98264.41;1814206;79;22288;-79
2022/03/25 03:42:17;;;;;;;15.08;7.55;;;;;;;2.01;49.35;98270.03;1806084;79;21495;-80
2022/03/25 03:44:43;;;;;;;17.17;8.43;;;;;;;1.96;50.43;98271.31;1813488;79;20987;-79
2022/03/25 03:47:14;;;;;;;15.38;8.83;;;;;;;1.93;49.88;98271.27;1805832;79;21455;-78
2022/03/25 03:49:41;;;;;;;15.78;8.18;;;;;;;1.87;49.99;98272.08;1813703;79;20991;-79
2022/03/25 03:52:08;;;;;;;14.65;8.30;;;;;;;1.84;50.14;98268.15;1833189;78;21447;-79
2022/03/25 03:54:38;;;;;;;17.48;8.23;;;;;;;1.80;50.38;98265.95;1846713;78;21416;-78
2022/03/25 03:57:08;;;;;;;20.12;8.05;;;;;;;1.74;51.65;98264.55;1846723;78;21023;-78
2022/03/25 03:59:33;;;;;;;20.45;8.35;;;;;;;1.75;50.49;98265.44;1846669;78;20967;-78
2022/03/25 04:02:00;;;;;;;16.40;8.48;;;;;;;1.73;50.14;98266.73;1829170;78;21073;-78
2022/03/25 04:04:26;;;;;;;16.20;7.95;;;;;;;1.69;50.76;98261.91;1813549;78;21050;-78
2022/03/25 04:06:52;;;;;;;17.05;8.78;;;;;;;1.65;51.56;98267.06;1813638;79;21471;-78
2022/03/25 04:09:19;;;;;;;16.23;8.20;;;;;;;1.61;50.67;98270.08;1813604;79;20982;-79
2022/03/25 04:11:45;;;;;;;17.45;8.65;;;;;;;1.54;51.40;98270.44;1813568;79;21058;-79
2022/03/25 04:14:12;;;;;;;15.48;8.38;;;;;;;1.47;52.08;98262.11;1832075;78;20971;-78
2022/03/25 04:16:38;;;;;;;14.50;8.98;;;;;;;1.44;51.24;98275.12;1846647;78;21424;-78
2022/03/25 04:19:06;;;;;;;15.28;8.40;;;;;;;1.41;51.63;98273.34;1844740;78;21031;-78
2022/03/25 04:21:32;;;;;;;15.38;7.80;;;;;;;1.39;50.28;98269.86;1837371;78;21010;-79
2022/03/25 04:23:59;;;;;;;17.67;8.08;;;;;;;1.41;50.54;98268.58;1837229;78;21039;-79
2022/03/25 04:26:25;;;;;;;17.02;8.23;;;;;;;1.39;52.48;98272.47;1820388;78;21006;-79
2022/03/25 04:28:52;;;;;;;15.90;8.35;;;;;;;1.35;50.75;98266.75;1805209;79;21007;-79
2022/03/25 04:31:18;;;;;;;17.40;8.55;;;;;;;1.33;53.43;98267.59;1805039;79;21018;-79
2022/03/25 04:33:45;;;;;;;18.02;8.50;;;;;;;1.31;51.07;98270.18;1805087;79;21077;-79
2022/03/25 04:36:12;;;;;;;19.62;8.90;;;;;;;1.33;51.03;98263.68;1804795;79;21051;-79
2022/03/25 04:38:38;;;;;;;17.67;8.60;;;;;;;1.26;53.53;98273.17;1828343;78;21409;-79
2022/03/25 04:41:05;;;;;;;20.25;8.80;;;;;;;1.24;52.75;98278.81;1837424;78;21036;-79
2022/03/25 04:43:31;;;;;;;19.10;8.28;;;;;;;1.23;52.18;98278.34;1837267;78;20991;-79
2022/03/25 04:45:58;;;;;;;23.83;9.65;;;;;;;1.24;51.55;98273.14;1829972;78;20944;-79
2022/03/25 04:48:26;;;;;;;19.57;8.63;;;;;;;1.25;51.24;98280.11;1833426;78;21004;-79
2022/03/25 04:50:52;;;;;;;17.92;9.23;;;;;;;1.26;53.03;98275.36;1836206;78;21020;-79
2022/03/25 04:53:19;;;;;;;18.23;9.38;;;;;;;1.27;51.62;98274.50;1836814;78;21059;-79
2022/03/25 04:55:45;;;;;;;17.70;9.03;;;;;;;1.27;52.02;98269.27;1830557;78;21042;-79
2022/03/25 04:58:11;;;;;;;15.88;8.98;;;;;;;1.28;52.19;98267.52;1804099;79;21019;-79
2022/03/25 05:00:38;;;;;;;18.65;9.48;;;;;;;1.30;52.83;98271.91;1804331;79;20980;-79
2022/03/25 05:03:05;;;;;;;18.35;8.70;;;;;;;1.33;51.83;98268.90;1804242;78;21015;-79
2022/03/25 05:05:32;;;;;;;18.17;9.05;;;;;;;1.36;52.90;98271.11;1803166;79;21006;-79
2022/03/25 05:07:59;;;;;;;21.90;8.43;;;;;;;1.39;52.63;98267.24;1812674;78;21016;-79
2022/03/25 05:10:25;;;;;;;17.02;9.33;;;;;;;1.45;52.62;98270.34;1837069;78;21034;-79
2022/03/25 05:12:52;;;;;;;17.65;8.90;;;;;;;1.52;52.17;98268.25;1836871;78;21408;-78
2022/03/25 05:15:18;;;;;;;20.80;8.93;;;;;;;1.53;54.60;98275.22;1837016;78;21051;-79
2022/03/25 05:17:48;;;;;;;16.32;8.85;;;;;;;1.58;54.18;98277.91;1837067;78;20964;-79
2022/03/25 05:20:17;;;;;;;22.42;9.13;;;;;;;1.61;54.39;98282.29;1824482;78;22359;-79
2022/03/25 05:22:45;;;;;;;23.60;10.20;;;;;;;1.67;53.09;98285.81;1804738;79;20972;-80
2022/03/25 05:25:12;;;;;;;21.40;9.00;;;;;;;1.73;53.24;98289.39;1804729;79;21030;-79
2022/03/25 05:27:52;;;;;;;24.37;9.55;;;;;;;1.77;52.55;98292.45;1804684;79;20976;-79
2022/03/25 05:30:26;;;;;;;21.23;11.03;;;;;;;1.83;53.71;98290.78;1805034;79;21047;-79
2022/03/25 05:32:54;;;;;;;18.57;9.13;;;;;;;1.88;53.41;98292.16;1800117;78;21156;-79
2022/03/25 05:35:23;;;;;;;17.65;8.93;;;;;;;1.92;52.78;98296.55;1797068;80;21093;-79
2022/03/25 05:37:50;;;;;;;18.02;10.18;;;;;;;1.97;54.37;98300.52;1796853;80;22200;-79
2022/03/25 05:40:20;;;;;;;22.70;9.45;;;;;;;2.03;52.71;98295.78;1796559;80;21019;-79
2022/03/25 05:42:48;;;;;;;21.27;9.80;;;;;;;2.12;52.16;98293.26;1802247;78;20987;-79
2022/03/25 05:45:19;;;;;;;22.45;9.25;;;;;;;2.20;52.00;98290.71;1826200;78;20999;-79
2022/03/25 05:47:46;;;;;;;21.30;10.13;;;;;;;2.28;52.13;98294.70;1772706;81;21011;-80
2022/03/25 05:50:14;;;;;;;19.45;10.63;;;;;;;2.33;52.07;98290.38;1781112;80;20984;-80
2022/03/25 05:52:41;;;;;;;19.25;9.73;;;;;;;2.42;51.87;98287.84;1801940;80;20979;-80
2022/03/25 05:55:10;;;;;;;22.45;10.45;;;;;;;2.52;51.61;98293.15;1801326;80;21484;-80
2022/03/25 05:57:36;;;;;;;20.85;9.93;;;;;;;2.58;51.07;98292.73;1800000;79;20999;-80
2022/03/25 06:00:08;;;;;;;16.75;9.98;;;;;;;2.64;50.72;98297.15;1800258;80;21035;-80
2022/03/25 06:02:45;;;;;;;18.62;10.10;;;;;;;2.71;51.25;98295.03;1771323;79;21071;-81
2022/03/25 06:05:12;;;;;;;21.27;10.63;;;;;;;2.76;50.82;98288.51;1797021;79;21040;-81
2022/03/25 06:07:42;;;;;;;21.62;10.68;;;;;;;2.81;51.85;98288.52;1801834;80;21023;-81
2022/03/25 06:10:11;;;;;;;22.17;10.63;;;;;;;2.88;51.61;98292.95;1797062;80;20972;-81
2022/03/25 06:12:40;;;;;;;20.97;10.03;;;;;;;2.96;51.47;98287.75;1802050;80;21050;-80
2022/03/25 06:15:08;;;;;;;20.62;10.32;;;;;;;3.04;51.67;98284.75;1794727;79;20940;-80
2022/03/25 06:17:47;;;;;;;18.77;10.63;;;;;;;3.16;50.90;98281.33;1797602;79;21472;-80
2022/03/25 06:20:17;;;;;;;26.40;10.48;;;;;;;3.28;50.79;98282.67;1797233;78;21022;-80
2022/03/25 06:22:44;;;;;;;130.90;67.30;;;;;;;3.42;50.60;98280.56;1791730;79;21019;-80
2022/03/25 06:25:13;;;;;;;28.07;14.78;;;;;;;3.56;50.31;98278.86;1794632;79;20964;-80
2022/03/25 06:27:56;;;;;;;18.10;9.60;;;;;;;3.74;50.82;98280.22;1781759;79;21019;-80
2022/03/25 06:30:31;;;;;;;20.37;11.05;;;;;;;4.04;50.82;98272.86;1816509;78;21015;-80
2022/03/25 06:32:58;;;;;;;17.27;9.50;;;;;;;4.26;50.10;98276.80;1771723;80;21005;-81
2022/03/25 06:35:25;;;;;;;16.42;8.75;;;;;;;4.55;50.13;98271.98;1773021;81;21063;-80
2022/03/25 06:37:52;;;;;;;21.25;10.40;;;;;;;4.72;49.36;98272.39;1772868;81;21008;-78
2022/03/25 06:40:20;;;;;;;16.45;9.45;;;;;;;4.86;49.16;98273.24;1795615;78;21039;-78
2022/03/25 06:42:47;;;;;;;16.57;9.50;;;;;;;5.08;48.83;98272.32;1797063;80;20979;-80
2022/03/25 06:45:17;;;;;;;16.02;8.73;;;;;;;5.28;48.60;98263.92;1796997;80;20987;-81
2022/03/25 06:47:45;;;;;;;16.85;9.13;;;;;;;5.47;48.14;98269.53;1784951;78;20985;-81
2022/03/25 06:50:16;;;;;;;17.50;9.03;;;;;;;5.62;47.84;98263.34;1772843;81;20987;-82
2022/03/25 06:52:44;;;;;;;18.07;8.58;;;;;;;5.80;47.57;98263.68;1772449;81;21003;-78
2022/03/25 06:55:12;;;;;;;17.92;9.45;;;;;;;5.96;47.26;98251.31;1773091;81;21062;-78
2022/03/25 06:57:40;;;;;;;17.35;8.75;;;;;;;6.08;47.09;98249.06;1784430;79;20991;-78
2022/03/25 07:00:12;;;;;;;18.05;9.55;;;;;;;6.27;46.67;98247.62;1796972;80;20996;-78
2022/03/25 07:02:38;;;;;;;14.68;8.60;;;;;;;6.40;46.54;98250.55;1800935;78;20995;-78
2022/03/25 07:05:06;;;;;;;19.90;8.78;;;;;;;6.52;46.26;98236.41;1802898;79;21035;-78
2022/03/25 07:07:37;;;;;;;15.55;9.35;;;;;;;6.65;46.12;98240.26;1789172;80;21466;-78
2022/03/25 07:10:06;;;;;;;14.28;8.40;;;;;;;6.76;45.92;98236.20;1771609;81;21019;-79
2022/03/25 07:12:33;;;;;;;16.20;7.95;;;;;;;6.85;45.73;98228.21;1789173;80;20988;-79
2022/03/25 07:14:59;;;;;;;16.70;8.93;;;;;;;6.98;45.22;98227.16;1771961;79;21016;-79
2022/03/25 07:17:26;;;;;;;17.67;9.18;;;;;;;7.08;45.12;98233.65;1769446;80;21320;-79
2022/03/25 07:19:52;;;;;;;14.75;8.70;;;;;;;7.25;44.65;98235.65;1769937;80;21435;-79
2022/03/25 07:22:19;;;;;;;17.02;8.80;;;;;;;7.35;44.78;98224.53;1770099;81;21039;-79
2022/03/25 07:24:46;;;;;;;22.27;12.18;;;;;;;7.48;44.31;98238.89;1770060;81;20987;-79
2022/03/25 07:27:12;;;;;;;21.35;10.28;;;;;;;7.56;44.28;98217.68;1781435;80;21416;-81
2022/03/25 07:29:38;;;;;;;19.17;9.75;;;;;;;7.63;43.81;98234.72;1802088;80;21070;-79
2022/03/25 07:32:06;;;;;;;21.07;9.13;;;;;;;7.69;43.60;98232.45;1801427;80;21011;-79
2022/03/25 07:34:34;;;;;;;17.35;8.83;;;;;;;7.75;42.99;98224.87;1802005;80;21046;-79
2022/03/25 07:37:02;;;;;;;20.35;10.80;;;;;;;7.83;43.13;98223.44;1801811;80;21024;-79
2022/03/25 07:39:28;;;;;;;15.78;9.43;;;;;;;7.93;42.19;98225.05;1801144;80;20967;-79
2022/03/25 07:41:55;;;;;;;20.70;9.68;;;;;;;7.96;41.73;98221.05;1792000;80;21452;-79
2022/03/25 07:44:23;;;;;;;18.02;10.32;;;;;;;8.00;41.80;98209.56;1766980;81;21059;-79
2022/03/25 07:46:49;;;;;;;15.70;9.43;;;;;;;8.03;42.12;98221.40;1766959;81;21011;-79
2022/03/25 07:49:16;;;;;;;19.12;9.43;;;;;;;8.07;41.98;98212.98;1766655;81;21071;-79
2022/03/25 07:51:43;;;;;;;20.00;9.58;;;;;;;8.13;41.08;98224.75;1776449;80;21390;-79
2022/03/25 07:54:10;;;;;;;16.57;9.38;;;;;;;8.23;40.82;98215.36;1802124;80;22117;-79
2022/03/25 07:56:38;;;;;;;17.05;9.08;;;;;;;8.28;39.69;98217.04;1773398;81;21364;-79
2022/03/25 07:59:05;;;;;;;18.02;9.38;;;;;;;8.30;40.22;98212.59;1773197;81;21074;-79
2022/03/25 08:01:32;;;;;;;19.05;8.95;;;;;;;8.35;40.00;98219.10;1801630;79;21397;-79
2022/03/25 08:03:58;;;;;;;15.90;8.90;;;;;;;8.39;40.21;98252.48;1803217;79;21032;-79
2022/03/25 08:06:25;;;;;;;18.48;8.58;;;;;;;8.47;40.03;98228.59;1803296;79;21024;-79
2022/03/25 08:08:51;;;;;;;15.72;9.00;;;;;;;8.52;39.85;98217.52;1800033;79;21421;-78
2022/03/25 08:11:20;;;;;;;20.08;9.50;;;;;;;8.53;39.48;98225.89;1802374;80;20952;-78
2022/03/25 08:13:47;;;;;;;16.82;8.45;;;;;;;8.58;39.50;98213.91;1797190;80;21055;-78
2022/03/25 08:16:17;;;;;;;16.30;9.15;;;;;;;8.62;39.39;98221.32;1802334;80;20979;-78
2022/03/25 08:18:44;;;;;;;15.03;8.58;;;;;;;8.66;39.44;98219.94;1799799;79;20984;-78
2022/03/25 08:21:11;;;;;;;13.30;8.28;;;;;;;8.70;39.51;98218.98;1807868;78;21066;-78
2022/03/25 08:29:09;;;;;;;12.10;8.28;;;;;;;8.96;39.56;98229.95;1827125;78;20976;-78
2022/03/25 08:31:36;;;;;;;16.85;7.70;;;;;;;9.03;39.36;98217.48;1805755;78;22013;-78
2022/03/25 08:34:03;;;;;;;14.95;7.80;;;;;;;9.09;39.27;98207.66;1820578;78;20984;-78
2022/03/25 08:36:30;;;;;;;12.78;7.35;;;;;;;9.19;39.49;98209.69;1801175;79;20990;-76
2022/03/25 08:38:56;;;;;;;17.12;7.50;;;;;;;9.36;39.17;98205.36;1819685;78;21004;-76
2022/03/25 08:41:23;;;;;;;16.75;7.97;;;;;;;9.49;38.97;98199.35;1817020;78;21002;-76
2022/03/25 08:43:49;;;;;;;14.50;7.50;;;;;;;9.57;38.59;98208.44;1820383;78;20975;-76
2022/03/25 08:46:18;;;;;;;12.82;6.85;;;;;;;9.68;38.71;98219.23;1822576;78;21435;-79
2022/03/25 08:48:45;;;;;;;10.35;6.75;;;;;;;9.80;38.04;98214.97;1817811;78;21002;-79
2022/03/25 08:51:12;;;;;;;13.10;7.50;;;;;;;9.83;37.54;98208.30;1813948;78;20986;-79
2022/03/25 08:53:40;;;;;;;21.70;10.08;;;;;;;9.83;37.82;98199.03;1813169;79;21432;-79
2022/03/25 08:56:07;;;;;;;22.82;11.35;;;;;;;9.94;38.37;98202.77;1816784;78;20962;-79
2022/03/25 08:58:34;;;;;;;12.78;6.75;;;;;;;10.06;38.28;98208.66;1820667;78;20932;-79
2022/03/25 09:01:01;;;;;;;14.38;6.97;;;;;;;10.11;38.21;98205.45;1830193;78;21427;-79
2022/03/25 09:03:27;;;;;;;14.85;6.08;;;;;;;10.23;37.68;98218.84;1817160;78;20977;-78
2022/03/25 09:05:54;;;;;;;10.63;6.65;;;;;;;10.29;37.53;98187.78;1807639;78;21015;-78
2022/03/25 09:08:21;;;;;;;11.97;6.80;;;;;;;10.40;37.89;98206.50;1814218;78;21019;-79
2022/03/25 09:10:49;;;;;;;11.75;7.10;;;;;;;10.43;36.74;98199.81;1808356;79;20968;-78
2022/03/25 09:13:16;;;;;;;12.73;6.53;;;;;;;10.46;36.87;98201.06;1820476;78;21037;-79
2022/03/25 09:15:43;;;;;;;10.95;5.90;;;;;;;10.50;37.42;98226.58;1837769;78;20961;-78
2022/03/25 09:18:09;;;;;;;10.88;6.47;;;;;;;10.55;36.83;98196.01;1824380;78;21479;-79
2022/03/25 09:20:36;;;;;;;11.73;6.90;;;;;;;10.58;36.73;98185.30;1819271;77;20991;-78
2022/03/25 09:23:03;;;;;;;11.15;6.50;;;;;;;10.66;36.86;98213.81;1760187;80;20989;-78
2022/03/25 09:25:30;;;;;;;11.18;7.42;;;;;;;10.81;36.86;98199.73;1787440;79;20971;-79
2022/03/25 09:27:57;;;;;;;14.45;7.17;;;;;;;10.85;35.84;98201.39;1798608;80;21317;-80
2022/03/25 09:30:23;;;;;;;11.73;6.97;;;;;;;10.89;35.75;98191.56;1795052;79;21463;-80
2022/03/25 09:32:50;;;;;;;11.10;6.70;;;;;;;10.95;35.88;98188.29;1735524;81;20964;-80
2022/03/25 09:35:16;;;;;;;10.45;6.65;;;;;;;10.98;35.29;98188.66;1795671;79;20933;-80
2022/03/25 09:37:47;;;;;;;10.65;6.75;;;;;;;11.04;35.71;98176.55;1780925;80;21023;-80
2022/03/25 09:40:18;;;;;;;10.93;7.08;;;;;;;11.13;35.28;98177.20;1779883;80;20989;-80
2022/03/25 09:42:46;;;;;;;12.10;6.85;;;;;;;11.21;35.54;98188.44;1793907;80;21029;-81
2022/03/25 09:45:18;;;;;;;13.48;7.12;;;;;;;11.28;35.20;98193.99;1788531;80;20983;-79
2022/03/25 09:47:47;;;;;;;13.88;7.78;;;;;;;11.32;34.75;98181.50;1777733;81;21020;-80
2022/03/25 09:50:18;;;;;;;11.80;6.75;;;;;;;11.32;34.66;98181.05;1777875;81;20976;-79
2022/03/25 09:52:45;;;;;;;12.40;6.47;;;;;;;11.40;34.81;98183.92;1777672;81;21062;-80
2022/03/25 09:55:13;;;;;;;14.85;7.47;;;;;;;11.48;34.10;98197.39;1777846;81;20959;-79
2022/03/25 09:57:41;;;;;;;11.33;7.78;;;;;;;11.51;34.14;98196.88;1793503;79;21023;-79
2022/03/25 10:00:13;;;;;;;13.88;7.12;;;;;;;11.51;34.29;98204.39;1824131;79;20989;-79
2022/03/25 10:02:40;;;;;;;12.90;7.12;;;;;;;11.63;34.47;98197.84;1776442;81;21039;-79
2022/03/25 10:05:18;;;;;;;14.53;8.15;;;;;;;11.69;33.59;98200.30;1824112;79;21487;-80
2022/03/25 10:07:49;;;;;;;14.40;7.22;;;;;;;11.66;33.86;98200.87;1777647;81;21151;-79
2022/03/25 10:10:20;;;;;;;10.50;6.60;;;;;;;11.70;34.04;98211.33;1802030;79;21492;-79
2022/03/25 10:12:50;;;;;;;11.18;6.30;;;;;;;11.83;32.67;98199.86;1777129;81;21487;-80
2022/03/25 10:15:30;;;;;;;11.68;5.90;;;;;;;11.64;32.17;98202.23;1786347;79;20995;-80
2022/03/25 10:18:06;;;;;;;11.88;6.47;;;;;;;11.56;32.67;98208.22;1794361;79;20928;-79
2022/03/25 10:20:39;;;;;;;13.43;7.33;;;;;;;11.64;32.80;98192.94;1757002;80;21511;-79
2022/03/25 10:23:17;;;;;;;12.60;6.67;;;;;;;11.81;33.25;98195.52;1790358;80;21373;-79
2022/03/25 10:25:57;;;;;;;12.25;7.25;;;;;;;12.00;33.38;98199.80;1805537;79;20937;-79
2022/03/25 10:28:40;;;;;;;10.10;5.62;;;;;;;11.97;32.72;98180.86;1800957;79;21433;-77
2022/03/25 10:31:11;;;;;;;11.12;6.45;;;;;;;12.00;32.57;98205.12;1784167;78;21046;-80
2022/03/25 10:33:57;;;;;;;9.07;6.13;;;;;;;12.00;32.36;98215.27;1796460;78;21022;-80
2022/03/25 10:36:23;;;;;;;13.15;6.40;;;;;;;11.91;32.95;98190.80;1799329;78;21055;-81
2022/03/25 10:38:54;;;;;;;12.73;6.22;;;;;;;12.05;32.84;98213.84;1798743;79;21420;-80
2022/03/25 10:41:27;;;;;;;10.23;5.92;;;;;;;12.24;32.38;98195.95;1794122;78;21000;-82
2022/03/25 10:44:03;;;;;;;13.22;6.10;;;;;;;12.56;31.97;98217.93;1799943;78;21012;-81
2022/03/25 10:46:46;;;;;;;12.13;6.78;;;;;;;12.63;31.44;98212.80;1771027;79;22121;-80
2022/03/25 10:49:16;;;;;;;9.90;5.60;;;;;;;13.51;31.47;98227.91;1771986;80;21403;-80
2022/03/25 10:51:53;;;;;;;9.88;6.25;;;;;;;14.52;29.28;98197.25;1771851;79;21041;-79
2022/03/25 10:54:26;;;;;;;9.73;6.20;;;;;;;15.63;26.98;98185.72;1817716;78;20984;-79
2022/03/25 10:56:57;;;;;;;8.63;5.80;;;;;;;16.57;26.19;98194.59;1810811;78;20952;-80
2022/03/25 10:59:28;;;;;;;11.28;6.55;;;;;;;17.09;24.72;98184.34;1816507;78;20980;-79
2022/03/25 11:01:58;;;;;;;10.32;7.33;;;;;;;18.10;25.00;98189.19;1827187;78;21542;-79
2022/03/25 11:04:26;;;;;;;12.33;6.90;;;;;;;17.36;23.84;98199.87;1807834;78;22138;-79
2022/03/25 11:06:54;;;;;;;9.00;6.20;;;;;;;16.83;24.54;98195.05;1803656;79;21421;-80
2022/03/25 11:09:22;;;;;;;11.30;6.47;;;;;;;16.97;24.12;98182.28;1807737;79;21007;-79
2022/03/25 11:11:51;;;;;;;11.45;6.80;;;;;;;17.00;25.07;98194.17;1809944;79;21431;-80
2022/03/25 11:14:19;;;;;;;9.23;7.05;;;;;;;16.93;24.71;98200.81;1809825;79;21432;-79
2022/03/25 11:16:53;;;;;;;10.10;6.95;;;;;;;16.80;25.33;98194.75;1808752;79;20975;-79
2022/03/25 11:19:21;;;;;;;11.28;6.47;;;;;;;17.47;25.39;98190.38;1810102;79;20979;-79
2022/03/25 11:21:50;;;;;;;12.45;6.30;;;;;;;18.80;23.56;98187.78;1813924;78;21034;-79
2022/03/25 11:24:24;;;;;;;11.73;6.62;;;;;;;17.56;22.95;98192.55;1777665;81;21053;-79
2022/03/25 11:26:53;;;;;;;;;;;;;;;16.20;24.34;98185.28;1778366;81;21428;-79
2022/03/25 11:29:24;;;;;;;11.38;6.97;;;;;;;16.81;24.89;98185.77;1808948;79;20116;-78
2022/03/25 11:32:15;;;;;;;11.60;6.65;;;;;;;16.73;24.36;98181.30;1810283;79;21062;-78
2022/03/25 11:34:48;;;;;;;9.58;6.42;;;;;;;16.91;24.98;98174.12;1810450;79;20984;-79
2022/03/25 11:37:29;;;;;;;14.03;6.65;;;;;;;17.75;24.18;98168.28;1774358;80;21075;-79
2022/03/25 11:40:25;;;;;;;9.18;6.42;;;;;;;18.16;22.68;98184.80;1781523;80;20980;-80